WC4PEM-13 Weather Reports


Display with metric or nautical units.
time (UTC)temp
F
wind
direction
speed
MPH
gust
MPH
rain 1hr
in
rain 24hr
in
rain mn
in
humidity
%
barometer
mb
20191015024901 74 108 2.0 4.0 7.67 0.00 0.00 89 1017.3
20191015024401 74 105 2.0 3.0 7.67 0.00 0.00 90 1017.2
20191015023901 74 100 2.0 3.0 7.67 0.00 0.00 90 1017.2
20191015023402 74 107 2.0 4.0 7.67 0.00 0.00 89 1017.3
20191015022901 74 115 2.0 4.0 7.67 0.00 0.00 88 1017.2
20191015022401 74 139 3.0 4.0 7.67 0.00 0.00 88 1017.2
20191015021902 75 114 2.0 4.0 7.67 0.00 0.00 88 1017.2
20191015021402 75 105 2.0 4.0 7.67 0.00 0.00 88 1017.1
20191015020901 75 129 3.0 5.0 7.67 0.00 0.00 87 1017.1
20191015020401 75 121 3.0 5.0 7.67 0.00 0.00 87 1017.0
20191015015902 75 101 3.0 5.0 7.67 0.00 0.00 87 1016.9
20191015015402 75 115 2.0 4.0 7.67 0.00 0.00 87 1016.9
20191015014902 75 118 3.0 5.0 7.67 0.00 0.00 87 1016.8
20191015014402 75 115 3.0 7.0 7.67 0.00 0.00 86 1016.7
20191015013902 75 107 3.0 6.0 7.67 0.00 0.00 86 1016.8
20191015013402 76 111 3.0 6.0 7.67 0.00 0.00 85 1016.8
20191015012903 76 118 3.0 7.0 7.67 0.00 0.00 85 1016.7
20191015012403 76 96 4.0 7.0 7.67 0.00 0.00 85 1016.6
20191015011402 76 117 5.0 7.0 7.67 0.00 0.00 84 1016.5
20191015010904 76 128 4.0 7.0 7.67 0.00 0.00 84 1016.4
20191015010402 77 98 4.0 8.0 7.67 0.00 0.00 83 1016.5
20191015005902 77 108 4.0 7.0 7.67 0.00 0.00 83 1016.4
20191015005402 77 97 5.0 8.0 7.67 0.00 0.00 83 1016.4
20191015004902 77 100 4.0 8.0 7.67 0.00 0.00 82 1016.3
20191015004402 77 107 4.0 7.0 7.67 0.00 0.00 82 1016.2
20191015003903 77 98 4.0 7.0 7.67 0.00 0.00 82 1016.1
20191015002902 77 111 5.0 8.0 7.67 0.00 0.00 81 1015.9
20191015002402 78 107 4.0 9.0 7.67 0.00 0.00 81 1015.9
20191015001905 78 122 5.0 8.0 7.67 0.00 0.00 80 1015.9
20191015001402 78 110 5.0 10.0 7.67 0.00 0.00 80 1015.8
20191015000906 78 107 5.0 9.0 7.67 0.00 0.00 79 1015.8
20191015000403 78 107 5.0 10.0 7.67 0.00 0.00 79 1015.7
20191014235902 78 104 5.0 10.0 7.67 0.00 0.00 78 1015.6
20191014234404 79 110 6.0 10.0 7.67 0.00 0.00 77 1015.6
20191014233903 79 105 4.0 9.0 7.67 0.00 0.00 76 1015.5
20191014232904 80 97 6.0 10.0 7.67 0.00 0.00 74 1015.6
20191014232402 80 100 5.0 10.0 7.67 0.00 0.00 73 1015.6
20191014231902 80 117 6.0 10.0 7.67 0.00 0.00 73 1015.4
20191014231403 80 97 4.0 8.0 7.67 0.00 0.00 72 1015.4
20191014230904 80 107 4.0 9.0 7.67 0.00 0.00 70 1015.4
20191014230403 81 114 5.0 9.0 7.67 0.00 0.00 70 1015.3
20191014225904 81 131 6.0 11.0 7.67 0.00 0.00 70 1015.3
20191014225403 81 101 6.0 10.0 7.67 0.00 0.00 70 1015.2
20191014224403 82 97 5.0 11.0 7.67 0.00 0.00 65 1015.2
20191014223908 83 105 5.0 11.0 7.67 0.00 0.00 65 1015.2
20191014222903 84 113 6.0 13.0 7.67 0.00 0.00 64 1015.1
20191014222404 84 91 5.0 9.0 7.67 0.00 0.00 62 1015.0
20191014221903 85 100 5.0 8.0 7.67 0.00 0.00 56 1015.0
20191014221402 86 94 3.0 9.0 7.67 0.00 0.00 53 1015.0
20191014221339 86 53 1.0 3.0 7.67 0.00 0.00 46 1015.0
20191014220902 86 60 1.0 4.0 7.67 0.00 0.00 47 1015.0
20191014220402 86 53 1.0 3.0 7.67 0.00 0.00 46 1015.0
20191014215903 86 101 1.0 4.0 7.67 0.00 0.00 47 1014.9
20191014215403 86 108 2.0 5.0 7.67 0.00 0.00 44 1014.9
20191014214403 86 66 1.0 4.0 7.67 0.00 0.00 46 1014.8
20191014213902 86 56 2.0 5.0 7.67 0.00 0.00 44 1014.9
20191014213403 86 100 1.0 3.0 7.67 0.00 0.00 44 1014.8
20191014212907 87 97 2.0 5.0 7.67 0.00 0.00 44 1014.8
20191014212403 87 115 1.0 5.0 7.67 0.00 0.00 45 1014.8
20191014211903 87 44 3.0 7.0 7.67 0.00 0.00 45 1014.8
20191014211402 88 44 2.0 6.0 7.67 0.00 0.00 45 1014.7
20191014210402 88 46 2.0 6.0 7.67 0.00 0.00 43 1014.7
20191014205904 88 68 2.0 6.0 7.67 0.00 0.00 43 1014.7
20191014205402 88 55 2.0 7.0 7.67 0.00 0.00 43 1014.7
20191014204904 88 51 1.0 7.0 7.67 0.00 0.00 44 1014.8
20191014204402 88 17 0.0 2.0 7.67 0.00 0.00 45 1014.7
20191014203905 88 96 1.0 3.0 7.67 0.00 0.00 44 1014.8
20191014203402 88 98 2.0 5.0 7.67 0.00 0.00 44 1014.7
20191014202904 89 63 3.0 6.0 7.67 0.00 0.00 44 1014.7
20191014202402 89 53 3.0 7.0 7.67 0.00 0.00 43 1014.7
20191014201902 89 51 3.0 7.0 7.67 0.00 0.00 42 1014.6
20191014201403 89 58 3.0 6.0 7.67 0.00 0.00 42 1014.5
20191014200903 89 52 4.0 8.0 7.67 0.00 0.00 42 1014.6
20191014200403 88 48 2.0 6.0 7.67 0.00 0.00 43 1014.5
20191014195902 88 352 2.0 8.0 7.67 0.00 0.00 45 1014.5
20191014195402 88 17 4.0 9.0 7.67 0.00 0.00 46 1014.5
20191014194902 87 35 5.0 10.0 7.67 0.00 0.00 45 1014.5
20191014194402 88 13 3.0 6.0 7.67 0.00 0.00 45 1014.5
20191014193903 89 350 4.0 7.0 7.67 0.00 0.00 43 1014.5
20191014193403 89 114 1.0 4.0 7.67 0.00 0.00 41 1014.5
20191014192403 89 110 5.0 8.0 7.67 0.00 0.00 43 1014.6
20191014192247 88 129 2.0 6.0 7.67 0.00 0.00 43 1014.7
20191014191904 88 129 2.0 6.0 7.67 0.00 0.00 43 1014.7
20191014191402 88 4 3.0 6.0 7.67 0.00 0.00 44 1014.7
20191014190909 87 349 0.0 3.0 7.67 0.00 0.00 46 1014.7
20191014190403 87 269 0.0 2.0 7.67 0.00 0.00 45 1014.7
20191014185909 87 107 2.0 7.0 7.67 0.00 0.00 46 1014.9
20191014185402 87 101 1.0 3.0 7.67 0.00 0.00 50 1014.9
20191014184903 87 68 2.0 5.0 7.67 0.00 0.00 46 1015.0
20191014184402 88 3 3.0 6.0 7.67 0.00 0.00 46 1014.8
20191014183905 88 44 4.0 6.0 7.67 0.00 0.00 46 1014.8
20191014183402 88 3 2.0 5.0 7.67 0.00 0.00 45 1014.9
20191014182902 88 63 3.0 6.0 7.67 0.00 0.00 45 1015.0
20191014182402 89 27 2.0 6.0 7.67 0.00 0.00 45 1015.0
20191014181402 88 103 2.0 5.0 7.67 0.00 0.00 43 1015.2
20191014180905 88 107 1.0 4.0 7.67 0.00 0.00 46 1015.3
20191014180402 88 48 2.0 5.0 7.67 0.00 0.00 46 1015.4
20191014175402 88 14 2.0 6.0 7.67 0.00 0.00 47 1015.5
20191014174903 88 118 1.0 4.0 7.67 0.00 0.00 47 1015.6
20191014174402 87 104 2.0 4.0 7.67 0.00 0.00 49 1015.6
20191014173902 87 56 4.0 6.0 7.67 0.00 0.00 52 1015.7
20191014173402 87 63 2.0 6.0 7.67 0.00 0.00 53 1015.7
20191014172908 87 62 3.0 7.0 7.67 0.00 0.00 52 1015.9
20191014172402 87 52 4.0 8.0 7.67 0.00 0.00 51 1015.9
20191014171909 87 13 4.0 6.0 7.67 0.00 0.00 50 1015.9
20191014171407 87 15 2.0 7.0 7.67 0.00 0.00 49 1016.1
20191014170902 86 35 1.0 4.0 7.67 0.00 0.00 49 1016.2
20191014170402 86 21 3.0 6.0 7.67 0.00 0.00 45 1016.3
20191014165905 86 14 4.0 6.0 7.67 0.00 0.00 49 1016.3
20191014165417 86 28 4.0 9.0 7.67 0.00 0.00 51 1016.5
20191014165402 86 52 7.0 10.0 7.67 0.00 0.00 51 1016.4
20191014164906 86 66 4.0 8.0 7.67 0.00 0.00 50 1016.5
20191014164403 86 3 4.0 7.0 7.67 0.00 0.00 51 1016.5
20191014163903 86 28 4.0 9.0 7.67 0.00 0.00 51 1016.5
20191014163402 85 13 4.0 8.0 7.67 0.00 0.00 53 1016.5
20191014162902 85 28 7.0 10.0 7.67 0.00 0.00 52 1016.7
20191014162402 85 11 6.0 10.0 7.67 0.00 0.00 52 1016.7
20191014161904 85 15 6.0 9.0 7.67 0.00 0.00 53 1016.7
20191014161402 85 357 7.0 11.0 7.67 0.00 0.00 52 1016.8
20191014160905 85 60 7.0 13.0 7.67 0.00 0.00 51 1016.9
20191014160404 85 8 6.0 12.0 7.67 0.00 0.00 48 1016.9
20191014155902 85 1 7.0 11.0 7.67 0.00 0.00 51 1016.9
20191014155403 85 307 5.0 10.0 7.67 0.00 0.00 50 1017.0
20191014154905 85 10 7.0 10.0 7.67 0.00 0.00 50 1017.0
20191014154402 85 35 5.0 10.0 7.67 0.00 0.00 51 1017.0
20191014153905 85 28 3.0 7.0 7.67 0.00 0.00 53 1017.0
20191014153402 84 58 6.0 11.0 7.67 0.00 0.00 52 1017.1
20191014153158 84 42 5.0 9.0 7.67 0.00 0.00 52 1017.1
20191014152903 84 42 5.0 9.0 7.67 0.00 0.00 52 1017.1
20191014151410 84 27 2.0 4.0 7.67 0.00 0.00 58 1017.1
20191014150905 84 6 3.0 7.0 7.67 0.00 0.00 58 1017.1
20191014150402 84 10 1.0 4.0 7.67 0.00 0.00 59 1017.2
20191014144905 84 193 1.0 2.0 7.67 0.00 0.00 67 1017.2
20191014143904 83 194 3.0 4.0 7.67 0.00 0.00 71 1017.2
20191014142902 82 121 1.0 3.0 7.67 0.00 0.00 76 1017.3
20191014142402 81 214 2.0 4.0 7.67 0.00 0.00 81 1017.3
20191014141903 81 194 1.0 4.0 7.67 0.00 0.00 84 1017.2
20191014140905 80 101 0.0 2.0 7.67 0.00 0.00 87 1017.3
20191014140402 79 134 1.0 2.0 7.67 0.00 0.00 91 1017.2
20191014135904 79 181 2.0 3.0 7.67 0.00 0.00 94 1017.2
20191014135402 78 176 1.0 3.0 7.67 0.00 0.00 96 1017.1
20191014134905 78 0 0.0 0.0 7.67 0.00 0.00 97 1017.1
20191014134403 77 0 0.0 0.0 7.67 0.00 0.00 99 1017.0
20191014133902 77 111 0.0 1.0 7.67 0.00 0.00 100 1016.9
20191014133403 76 120 0.0 2.0 7.67 0.00 0.00 100 1017.0
20191014132457 74 194 0.0 2.0 7.67 0.00 0.00 100 1016.5
20191014132402 75 0 0.0 0.0 7.67 0.00 0.00 100 1016.7
20191014131902 74 169 1.0 3.0 7.67 0.00 0.00 100 1016.7
20191014131403 74 177 1.0 3.0 7.67 0.00 0.00 100 1016.6
20191014130902 74 194 0.0 2.0 7.67 0.00 0.00 100 1016.5
20191014130403 74 0 0.0 0.0 7.67 0.00 0.00 100 1016.5
20191014125902 73 0 0.0 0.0 7.67 0.00 0.00 100 1016.5
20191014124902 73 46 2.0 4.0 7.67 0.00 0.00 100 1016.6
20191014123905 71 65 1.0 2.0 7.67 0.00 0.00 100 1016.5
20191014123402 71 65 1.0 3.0 7.67 0.00 0.00 100 1016.4
20191014122904 70 0 0.0 0.0 7.67 0.00 0.00 100 1016.3
20191014122402 69 0 0.0 0.0 7.67 0.00 0.00 100 1016.3
20191014120406 68 49 1.0 3.0 7.67 0.00 0.00 100 1016.2
20191014115904 67 0 0.0 0.0 7.67 0.00 0.00 99 1016.2
20191014115435 67 0 0.0 0.0 7.67 0.00 0.00 99 1016.1
20191014115402 67 0 0.0 0.0 7.67 0.00 0.00 99 1016.1
20191014114905 67 0 0.0 0.0 7.67 0.00 0.00 99 1016.1
20191014114403 67 0 0.0 0.0 7.67 0.00 0.00 99 1016.2
20191014113906 67 28 0.0 1.0 7.67 0.00 0.00 99 1016.1
20191014113622 67 24 2.0 3.0 7.67 0.00 0.00 99 1016.1
20191014113402 67 24 1.0 3.0 7.67 0.00 0.00 99 1016.1
20191014112903 67 66 2.0 3.0 7.67 0.00 0.00 99 1016.1
20191014112402 67 62 2.0 3.0 7.67 0.00 0.00 99 1016.1
20191014111904 67 24 2.0 3.0 7.67 0.00 0.00 99 1016.1
20191014111752 67 28 0.0 1.0 7.67 0.00 0.00 99 1016.0
20191014110905 67 28 0.0 1.0 7.67 0.00 0.00 99 1016.0
20191014110402 67 0 0.0 0.0 7.67 0.00 0.00 99 1015.9
20191014105903 67 0 0.0 0.0 7.67 0.00 0.00 99 1015.8
20191014105403 67 0 0.0 0.0 7.67 0.00 0.00 99 1015.8
20191014104902 68 0 0.0 0.0 7.67 0.00 0.00 98 1015.7
20191014104404 68 0 0.0 0.0 7.67 0.00 0.00 98 1015.7
20191014103908 68 0 0.0 0.0 7.67 0.00 0.00 98 1015.6
20191014103402 68 58 1.0 2.0 7.67 0.00 0.00 98 1015.6
20191014102904 68 62 1.0 2.0 7.67 0.00 0.00 99 1015.6
20191014102402 67 41 0.0 1.0 7.67 0.00 0.00 99 1015.7
20191014101403 67 0 0.0 0.0 7.67 0.00 0.00 98 1015.6
20191014100905 67 0 0.0 0.0 7.67 0.00 0.00 98 1015.6
20191014100402 67 0 0.0 0.0 7.67 0.00 0.00 98 1015.6
20191014095904 67 0 0.0 0.0 7.67 0.00 0.00 98 1015.5
20191014095403 68 0 0.0 0.0 7.67 0.00 0.00 98 1015.4
20191014094906 68 0 0.0 0.0 7.67 0.00 0.00 98 1015.4
20191014094405 68 0 0.0 0.0 7.67 0.00 0.00 98 1015.4
20191014093903 68 0 0.0 0.0 7.67 0.00 0.00 98 1015.3
20191014093403 68 0 0.0 0.0 7.67 0.00 0.00 97 1015.3
20191014092905 68 0 0.0 0.0 7.67 0.00 0.00 97 1015.1
20191014092403 68 128 2.0 3.0 7.67 0.00 0.00 97 1015.2
20191014091905 68 125 0.0 2.0 7.67 0.00 0.00 97 1015.1
20191014091403 68 128 1.0 3.0 7.67 0.00 0.00 97 1015.0
20191014090904 68 121 1.0 2.0 7.67 0.00 0.00 97 1015.2
20191014090406 68 0 0.0 0.0 7.67 0.00 0.00 97 1015.1
20191014085905 68 0 0.0 0.0 7.67 0.00 0.00 97 1015.2
20191014085404 68 0 0.0 0.0 7.67 0.00 0.00 97 1015.1
20191014084905 68 0 0.0 0.0 7.67 0.00 0.00 97 1015.2
20191014084403 68 0 0.0 0.0 7.67 0.00 0.00 97 1015.3
20191014083910 68 0 0.0 0.0 7.67 0.00 0.00 97 1015.2
20191014083403 68 0 0.0 0.0 7.67 0.00 0.00 97 1015.2
20191014083242 68 0 0.0 0.0 7.67 0.00 0.00 97 1015.3
20191014082903 68 0 0.0 0.0 7.67 0.00 0.00 97 1015.3
20191014082403 68 0 0.0 0.0 7.67 0.00 0.00 97 1015.4
20191014081905 68 0 0.0 0.0 7.67 0.00 0.00 96 1015.3
20191014081403 68 0 0.0 0.0 7.67 0.00 0.00 97 1015.3
20191014080906 68 0 0.0 0.0 7.67 0.00 0.00 96 1015.4
20191014080403 68 0 0.0 0.0 7.67 0.00 0.00 96 1015.3
20191014075905 68 0 0.0 0.0 7.67 0.00 0.00 96 1015.4
20191014075403 68 0 0.0 0.0 7.67 0.00 0.00 96 1015.3
20191014074906 68 0 0.0 0.0 7.67 0.00 0.00 96 1015.4
20191014074403 68 0 0.0 0.0 7.67 0.00 0.00 96 1015.5
20191014073403 68 0 0.0 0.0 7.67 0.00 0.00 96 1015.5
20191014072906 68 0 0.0 0.0 7.67 0.00 0.00 96 1015.4
20191014072403 69 0 0.0 0.0 7.67 0.00 0.00 96 1015.4
20191014071903 68 0 0.0 0.0 7.67 0.00 0.00 96 1015.4
20191014071403 69 0 0.0 0.0 7.67 0.00 0.00 96 1015.4
20191014070906 69 0 0.0 0.0 7.67 0.00 0.00 96 1015.4
20191014065906 69 0 0.0 0.0 7.67 0.00 0.00 96 1015.5
20191014065403 69 0 0.0 0.0 7.67 0.00 0.00 96 1015.5
20191014064905 69 0 0.0 0.0 7.67 0.00 0.00 96 1015.5
20191014063903 69 0 0.0 0.0 7.67 0.00 0.00 95 1015.4
20191014063403 69 0 0.0 0.0 7.67 0.00 0.00 95 1015.5
20191014062903 69 0 0.0 0.0 7.67 0.00 0.00 95 1015.5
20191014062403 69 0 0.0 0.0 7.67 0.00 0.00 95 1015.5
20191014061905 69 0 0.0 0.0 7.67 0.00 0.00 95 1015.6
20191014061403 69 0 0.0 0.0 7.67 0.00 0.00 95 1015.6
20191014060903 69 98 1.0 2.0 7.67 0.00 0.00 95 1015.7
20191014060404 69 101 2.0 3.0 7.67 0.00 0.00 95 1015.7
20191014055903 70 103 2.0 3.0 7.67 0.00 0.00 94 1015.7
20191014055403 70 107 2.0 3.0 7.67 0.00 0.00 94 1015.8
20191014054908 70 100 3.0 4.0 7.67 0.00 0.00 94 1015.7
20191014054403 70 65 0.0 0.0 7.67 0.00 0.00 93 1015.7
20191014053906 70 100 0.0 2.0 7.67 0.00 0.00 93 1015.8
20191014053403 70 97 2.0 3.0 7.67 0.00 0.00 93 1015.9
20191014052906 70 104 2.0 3.0 7.67 0.00 0.00 93 1015.9
20191014052403 70 104 2.0 3.0 7.67 0.00 0.00 93 1016.0
20191014051903 70 107 2.0 3.0 7.67 0.00 0.00 93 1016.0
20191014051403 71 96 2.0 3.0 7.67 0.00 0.00 92 1016.1
20191014050903 71 107 2.0 3.0 7.67 0.00 0.00 92 1016.1
20191014050403 71 105 2.0 3.0 7.67 0.00 0.00 92 1016.1
20191014045903 71 113 2.0 3.0 7.67 0.00 0.00 92 1016.1
20191014045403 71 108 3.0 4.0 7.67 0.00 0.00 92 1016.0
20191014044903 71 131 3.0 4.0 7.67 0.00 0.00 92 1016.0
20191014044403 71 125 3.0 4.0 7.67 0.00 0.00 91 1016.1
20191014043403 71 129 2.0 4.0 7.67 0.00 0.00 91 1016.2
20191014042906 71 142 3.0 4.0 7.67 0.00 0.00 91 1016.2
20191014042404 71 150 1.0 3.0 7.67 0.00 0.00 91 1016.2
20191014041906 71 135 2.0 3.0 7.67 0.00 0.00 91 1016.2
20191014041403 71 134 2.0 4.0 7.67 0.00 0.00 91 1016.3
20191014040903 71 125 2.0 4.0 7.67 0.00 0.00 90 1016.3
20191014040403 71 127 2.0 4.0 7.67 0.00 0.00 90 1016.3
20191014035904 72 146 3.0 4.0 7.67 0.00 0.00 90 1016.2
20191014035403 72 131 2.0 4.0 7.67 0.00 0.00 90 1016.2
20191014034906 72 139 2.0 4.0 7.67 0.00 0.00 90 1016.3
20191014034403 72 125 3.0 4.0 7.67 0.00 0.00 90 1016.2
20191014033627 72 148 3.0 4.0 7.67 0.00 0.00 89 1016.1
20191014033403 72 139 2.0 4.0 7.67 0.00 0.00 89 1016.2
20191014032906 72 148 3.0 4.0 7.67 0.00 0.00 89 1016.1
20191014032403 72 115 3.0 5.0 7.67 0.00 0.00 89 1016.1
20191014031903 72 111 3.0 4.0 7.67 0.00 0.00 89 1016.1
20191014031405 73 120 4.0 6.0 7.67 0.00 0.00 88 1016.1
20191014030905 72 128 3.0 5.0 7.67 0.00 0.00 88 1016.1
20191014030403 73 143 3.0 6.0 7.67 0.00 0.00 88 1016.0
20191014025903 73 127 3.0 6.0 7.67 0.00 0.00 88 1016.1
20191014025404 73 139 3.0 5.0 7.67 0.00 0.00 88 1016.1